Time;durP1;ratioP1;P1;durP2;ratioP2;P2;SDS_P1;SDS_P2;PMS_P1;PMS_P2;Temp;Humidity;BMP_temperature;BMP_pressure;BME280_temperature;BME280_humidity;BME280_pressure;Samples;Min_cycle;Max_cycle;Signal;HPM_P1;HPM_P2
2022/01/23 00:01:08;;;;;;;2.35;0.50;;;21.10;99.90;;;;;;4986571;28;20105;-73
2022/01/23 00:03:41;;;;;;;1.10;0.20;;;21.00;99.90;;;;;;4984121;28;20030;-79
2022/01/23 00:06:08;;;;;;;1.20;0.28;;;20.80;99.90;;;;;;4986362;28;20037;-72
2022/01/23 00:08:36;;;;;;;2.10;0.50;;;20.70;99.90;;;;;;4986032;28;20464;-72
2022/01/23 00:11:03;;;;;;;2.15;0.28;;;20.90;99.90;;;;;;4984635;28;20026;-72
2022/01/23 00:17:15;;;;;;;3.92;0.30;;;21.00;99.90;;;;;;4985802;28;20026;-72
2022/01/23 00:19:06;;;;;;;1.58;0.52;;;21.70;99.90;;;;;;4986829;28;20459;-72
2022/01/23 00:21:34;;;;;;;1.13;0.40;;;22.00;99.90;;;;;;4985324;28;20027;-73
2022/01/23 00:31:59;;;;;;;7.22;0.77;;;21.10;99.90;;;;;;4986465;28;20293;-73
2022/01/23 00:34:27;;;;;;;1.42;0.63;;;21.00;99.90;;;;;;4986037;28;20109;-73
2022/01/23 00:36:54;;;;;;;1.58;0.40;;;21.10;99.90;;;;;;4985354;28;20042;-78
2022/01/23 00:39:21;;;;;;;0.82;0.60;;;21.00;99.90;;;;;;4984022;28;20058;-73
2022/01/23 00:41:48;;;;;;;1.98;0.68;;;21.10;99.90;;;;;;4985525;28;20030;-74
2022/01/23 00:44:16;;;;;;;2.10;0.50;;;21.10;99.90;;;;;;4985253;28;20027;-77
2022/01/23 00:46:49;;;;;;;2.47;0.50;;;21.20;99.90;;;;;;4983908;28;20057;-75
2022/01/23 00:49:26;;;;;;;0.52;0.20;;;21.20;99.90;;;;;;4984399;28;20032;-72
2022/01/23 00:51:54;;;;;;;3.38;0.90;;;21.00;99.90;;;;;;4985972;28;20022;-75
2022/01/23 00:54:22;;;;;;;2.38;0.60;;;20.60;99.90;;;;;;4980649;28;20098;-75
2022/01/23 00:56:50;;;;;;;1.63;0.30;;;20.50;99.90;;;;;;4984205;28;20023;-77
2022/01/23 00:59:17;;;;;;;2.63;0.40;;;20.30;99.90;;;;;;4984086;28;20035;-75
2022/01/23 01:01:44;;;;;;;3.75;0.47;;;20.20;99.90;;;;;;4980157;28;20060;-76
2022/01/23 01:04:12;;;;;;;1.48;0.55;;;20.00;99.90;;;;;;4992027;28;20088;-73
2022/01/23 01:06:39;;;;;;;1.05;0.40;;;19.90;99.90;;;;;;4991392;28;20076;-76
2022/01/23 01:09:08;;;;;;;3.58;0.40;;;19.90;99.90;;;;;;4990764;28;20057;-74
2022/01/23 01:11:55;;;;;;;4.50;0.20;;;20.00;99.90;;;;;;4985565;28;20073;-74
2022/01/23 01:30:13;;;;;;;1.10;0.43;;;20.50;99.90;;;;;;4928933;29;20028;-74
2022/01/23 01:31:28;;;;;;;1.20;0.40;;;21.60;99.90;;;;;;4989913;28;20037;-83
2022/01/23 01:39:01;;;;;;;1.20;0.40;;;22.10;99.90;;;;;;4990046;28;20026;-78
2022/01/23 01:41:29;;;;;;;1.52;0.52;;;22.10;99.90;;;;;;4989657;28;20395;-75
2022/01/23 01:43:57;;;;;;;0.98;0.40;;;22.20;99.90;;;;;;4991025;28;20026;-76
2022/01/23 01:46:25;;;;;;;0.90;0.30;;;22.20;99.90;;;;;;4977392;28;20034;-74
2022/01/23 01:48:52;;;;;;;2.38;0.45;;;22.20;99.90;;;;;;4978492;28;20022;-84
2022/01/23 01:51:19;;;;;;;1.88;0.30;;;22.50;99.90;;;;;;4979316;28;20019;-81
2022/01/23 01:53:56;;;;;;;5.05;0.57;;;22.80;99.90;;;;;;4977012;28;20379;-76
2022/01/23 01:56:23;;;;;;;3.40;0.43;;;23.00;99.90;;;;;;4991904;28;20033;-76
2022/01/23 02:09:43;;;;;;;4.20;0.40;;;22.70;99.90;;;;;;4991816;28;20557;-77
2022/01/23 02:53:17;;;;;;;0.30;0.20;;;23.20;99.90;;;;;;4977593;28;20134;-79
2022/01/23 02:55:44;;;;;;;0.25;0.15;;;23.80;99.90;;;;;;4994083;28;20023;-75
2022/01/23 02:58:14;;;;;;;0.38;0.10;;;23.30;99.90;;;;;;4994771;28;20419;-81
2022/01/23 03:01:07;;;;;;;0.60;0.30;;;23.10;99.90;;;;;;4996225;28;20038;-78
2022/01/23 03:03:39;;;;;;;1.95;0.57;;;22.90;99.90;;;;;;4995976;28;20026;-75
2022/01/23 03:09:23;;;;;;;3.67;0.47;;;22.50;99.90;;;;;;4984586;28;20102;-87
2022/01/23 03:14:53;;;;;;;;;;;23.00;99.90;;;;;;4983346;28;20547;-75
2022/01/23 03:31:20;;;;;;;0.17;0.13;;;22.90;99.90;;;;;;4955627;28;20034;-73
2022/01/23 03:33:48;;;;;;;1.45;0.38;;;22.60;99.90;;;;;;4984609;28;20450;-75
2022/01/23 03:36:16;;;;;;;1.15;0.28;;;22.50;99.90;;;;;;4984020;28;20026;-74
2022/01/23 03:38:43;;;;;;;3.17;0.28;;;22.40;99.90;;;;;;4978409;28;20055;-74
2022/01/23 03:41:11;;;;;;;0.30;0.30;;;22.60;99.90;;;;;;4984925;28;20038;-73
2022/01/23 03:43:40;;;;;;;1.25;0.35;;;22.60;99.90;;;;;;4995465;28;20094;-74
2022/01/23 03:51:14;;;;;;;2.17;0.32;;;22.60;99.90;;;;;;4995693;28;20033;-74
2022/01/23 03:53:42;;;;;;;2.50;0.20;;;22.50;99.90;;;;;;4995371;28;20027;-76
2022/01/23 03:56:09;;;;;;;4.50;0.55;;;22.30;99.90;;;;;;4995392;28;20026;-75
2022/01/23 03:58:36;;;;;;;2.90;0.50;;;22.20;99.90;;;;;;4995340;28;20110;-75
2022/01/23 04:01:04;;;;;;;0.95;0.30;;;22.20;99.90;;;;;;4995239;28;20034;-73
2022/01/23 04:03:33;;;;;;;4.53;0.65;;;22.10;99.90;;;;;;4995145;28;20093;-74
2022/01/23 04:06:00;;;;;;;1.38;0.25;;;21.70;99.90;;;;;;4995238;28;20046;-74
2022/01/23 04:08:28;;;;;;;4.45;0.70;;;21.60;99.90;;;;;;4995089;28;20378;-73
2022/01/23 04:10:55;;;;;;;1.85;0.50;;;21.50;99.90;;;;;;4995145;28;20104;-75
2022/01/23 04:13:29;;;;;;;2.50;0.73;;;21.60;99.90;;;;;;4994712;28;20027;-76
2022/01/23 04:35:04;;;;;;;1.23;0.30;;;21.70;99.90;;;;;;4993951;28;20047;-75
2022/01/23 04:45:55;;;;;;;1.73;0.30;;;21.70;99.90;;;;;;4984594;28;20097;-76
2022/01/23 05:02:32;;;;;;;1.87;0.43;;;22.20;99.90;;;;;;4994258;28;20050;-74
2022/01/23 05:04:51;;;;;;;0.52;0.20;;;22.10;99.90;;;;;;4991135;28;20264;-74
2022/01/23 05:07:19;;;;;;;1.48;0.30;;;21.60;99.90;;;;;;4991092;28;20033;-82
2022/01/23 05:09:47;;;;;;;2.10;0.40;;;21.70;99.90;;;;;;4986574;28;20387;-75
2022/01/23 05:12:14;;;;;;;1.67;0.17;;;22.00;99.90;;;;;;4987804;28;20380;-74
2022/01/23 05:14:45;;;;;;;0.85;0.20;;;22.30;99.90;;;;;;4993714;28;20049;-76
2022/01/23 05:17:15;;;;;;;0.75;0.30;;;22.30;99.90;;;;;;4993865;28;20097;-75
2022/01/23 05:19:43;;;;;;;1.67;0.40;;;22.40;99.90;;;;;;4993733;28;20178;-77
2022/01/23 05:24:52;;;;;;;1.73;0.28;;;23.00;99.90;;;;;;4993537;28;20389;-83
2022/01/23 05:27:27;;;;;;;0.50;0.30;;;23.20;99.90;;;;;;4993676;28;20087;-75
2022/01/23 05:29:57;;;;;;;1.20;0.35;;;23.40;99.90;;;;;;4979398;28;20464;-83
2022/01/23 05:32:27;;;;;;;3.85;0.52;;;23.70;99.90;;;;;;4987819;28;20037;-81
2022/01/23 05:34:55;;;;;;;2.10;0.45;;;23.70;99.90;;;;;;4993959;28;20027;-74
2022/01/23 05:37:23;;;;;;;1.25;0.25;;;23.10;99.90;;;;;;4993389;28;20052;-79
2022/01/23 05:39:51;;;;;;;2.00;0.30;;;22.50;99.90;;;;;;4993362;28;20077;-74
2022/01/23 05:42:19;;;;;;;1.67;0.60;;;22.20;99.90;;;;;;4991763;28;20483;-73
2022/01/23 05:44:47;;;;;;;0.85;0.20;;;22.20;99.90;;;;;;4992902;28;20023;-75
2022/01/23 05:47:14;;;;;;;0.85;0.17;;;22.40;99.90;;;;;;4989835;28;20037;-76
2022/01/23 05:49:42;;;;;;;0.50;0.30;;;22.60;99.90;;;;;;4980230;28;20080;-78
2022/01/23 05:52:10;;;;;;;1.15;0.30;;;22.50;99.90;;;;;;4976514;28;20035;-78
2022/01/23 05:54:38;;;;;;;1.10;0.45;;;22.40;99.90;;;;;;4982038;28;20042;-80
2022/01/23 05:57:06;;;;;;;1.60;0.30;;;22.50;99.90;;;;;;4975731;28;20484;-75
2022/01/23 05:59:34;;;;;;;0.30;0.20;;;22.80;99.90;;;;;;4974908;28;20033;-82
2022/01/23 06:02:02;;;;;;;1.95;0.20;;;22.90;99.90;;;;;;4979503;28;20038;-75
2022/01/23 06:04:32;;;;;;;1.30;0.35;;;23.00;99.90;;;;;;4981789;28;20023;-75
2022/01/23 06:07:00;;;;;;;1.20;0.28;;;23.10;99.90;;;;;;4982481;28;20027;-75
2022/01/23 06:09:28;;;;;;;0.82;0.30;;;22.90;99.90;;;;;;4984103;28;20037;-74
2022/01/23 06:11:56;;;;;;;0.55;0.10;;;22.90;99.90;;;;;;4984760;28;20014;-84
2022/01/23 06:14:26;;;;;;;1.23;0.32;;;22.80;99.90;;;;;;4980382;28;20027;-74
2022/01/23 06:16:54;;;;;;;1.90;0.30;;;22.60;99.90;;;;;;4994046;28;20106;-84
2022/01/23 06:19:22;;;;;;;3.85;0.40;;;22.50;99.90;;;;;;4993943;28;20030;-74
2022/01/23 06:21:49;;;;;;;1.75;0.20;;;22.50;99.90;;;;;;4993637;28;20030;-74
2022/01/23 06:24:29;;;;;;;2.33;0.30;;;22.40;99.90;;;;;;4993760;28;20053;-74
2022/01/23 06:26:59;;;;;;;0.60;0.38;;;22.00;99.90;;;;;;4993961;28;20061;-75
2022/01/23 06:29:31;;;;;;;0.47;0.40;;;21.90;99.90;;;;;;4993997;28;20021;-86
2022/01/23 06:32:02;;;;;;;0.93;0.47;;;22.10;99.90;;;;;;4993824;28;20018;-75
2022/01/23 06:34:30;;;;;;;1.60;0.30;;;22.40;99.90;;;;;;4993650;28;20031;-77
2022/01/23 06:36:59;;;;;;;1.25;0.50;;;22.30;99.90;;;;;;4993811;28;20025;-80
2022/01/23 06:39:27;;;;;;;1.45;0.40;;;22.50;99.90;;;;;;4992398;28;20415;-75
2022/01/23 06:41:55;;;;;;;0.73;0.32;;;22.70;99.90;;;;;;4993787;28;20030;-76
2022/01/23 06:44:23;;;;;;;3.08;0.20;;;22.80;99.90;;;;;;4993489;28;20018;-74
2022/01/23 06:46:51;;;;;;;0.68;0.25;;;22.50;99.90;;;;;;4993660;28;20030;-73
2022/01/23 06:49:19;;;;;;;0.65;0.20;;;22.70;99.90;;;;;;4993903;28;20018;-73
2022/01/23 06:51:48;;;;;;;1.55;0.68;;;22.90;99.90;;;;;;4993906;28;20031;-78
2022/01/23 06:54:16;;;;;;;0.35;0.22;;;22.90;99.90;;;;;;4994201;28;20097;-76
2022/01/23 06:56:44;;;;;;;0.25;0.10;;;23.20;99.90;;;;;;4995335;28;20023;-85
2022/01/23 06:59:12;;;;;;;6.32;0.50;;;23.70;99.90;;;;;;4996418;28;20133;-74
2022/01/23 07:01:40;;;;;;;3.78;0.28;;;23.90;99.90;;;;;;4996960;28;20038;-74
2022/01/23 07:04:07;;;;;;;3.22;0.60;;;23.50;99.90;;;;;;4997155;28;20034;-72
2022/01/23 07:06:35;;;;;;;3.00;0.65;;;23.30;99.90;;;;;;4997317;28;20018;-75
2022/01/23 07:09:03;;;;;;;0.80;0.20;;;22.80;99.90;;;;;;4997186;28;20023;-73
2022/01/23 07:11:31;;;;;;;1.70;0.25;;;22.90;99.90;;;;;;4997125;28;20026;-74
2022/01/23 07:13:58;;;;;;;7.75;0.45;;;22.80;99.90;;;;;;4996957;28;20089;-88
2022/01/23 07:16:26;;;;;;;0.93;0.20;;;23.20;99.90;;;;;;4995727;28;20023;-73
2022/01/23 07:18:54;;;;;;;0.45;0.20;;;23.30;99.90;;;;;;4995730;28;20037;-73
2022/01/23 07:21:21;;;;;;;1.50;0.32;;;23.00;99.90;;;;;;4996981;28;20026;-74
2022/01/23 07:23:50;;;;;;;1.25;0.20;;;22.90;99.90;;;;;;4995206;28;20045;-75
2022/01/23 07:26:21;;;;;;;3.03;0.35;;;22.60;99.90;;;;;;4996585;28;20026;-73
2022/01/23 07:28:51;;;;;;;1.02;0.40;;;22.20;99.90;;;;;;4996932;28;20026;-73
2022/01/23 07:31:44;;;;;;;2.05;0.32;;;22.00;99.90;;;;;;4996772;28;20157;-74
2022/01/23 07:34:13;;;;;;;1.50;0.40;;;21.80;99.90;;;;;;4987272;28;20027;-79
2022/01/23 07:36:41;;;;;;;1.08;0.60;;;22.00;99.90;;;;;;4987237;28;20105;-75
2022/01/23 07:39:09;;;;;;;0.63;0.32;;;22.20;99.90;;;;;;4977077;28;20078;-75
2022/01/23 07:41:36;;;;;;;1.70;0.20;;;22.60;99.90;;;;;;4976917;28;20034;-74
2022/01/23 07:44:05;;;;;;;0.82;0.32;;;22.80;99.90;;;;;;4976750;28;20050;-73
2022/01/23 07:46:32;;;;;;;2.17;0.43;;;23.10;99.90;;;;;;4976904;28;20039;-72
2022/01/23 07:49:00;;;;;;;0.98;0.20;;;22.50;99.90;;;;;;4976815;28;20081;-73
2022/01/23 07:51:28;;;;;;;1.70;0.60;;;22.30;99.90;;;;;;4976890;28;20114;-73
2022/01/23 07:53:55;;;;;;;1.60;0.30;;;21.90;99.90;;;;;;4976769;28;20106;-73
2022/01/23 07:56:23;;;;;;;4.90;0.22;;;21.90;99.90;;;;;;4976809;28;20022;-74
2022/01/23 07:58:51;;;;;;;0.52;0.20;;;21.80;99.90;;;;;;4977274;28;20495;-74
2022/01/23 08:01:18;;;;;;;1.50;0.30;;;21.80;99.90;;;;;;4976754;28;20396;-74
2022/01/23 08:03:46;;;;;;;3.60;0.40;;;21.70;99.90;;;;;;4975429;28;20539;-74
2022/01/23 08:06:15;;;;;;;0.85;0.38;;;21.70;99.90;;;;;;4976317;28;20081;-74
2022/01/23 08:08:43;;;;;;;2.50;0.60;;;21.80;99.90;;;;;;4976523;28;20384;-74
2022/01/23 08:11:11;;;;;;;0.77;0.40;;;21.80;99.90;;;;;;4975589;28;20106;-75
2022/01/23 08:13:38;;;;;;;4.75;1.15;;;21.80;99.90;;;;;;4976353;28;20031;-74
2022/01/23 08:16:06;;;;;;;4.85;0.80;;;21.60;99.90;;;;;;4980220;28;20050;-78
2022/01/23 08:18:34;;;;;;;1.65;1.10;;;21.40;99.90;;;;;;4987241;28;20023;-74
2022/01/23 08:21:02;;;;;;;1.67;0.40;;;21.30;99.90;;;;;;4983310;28;20132;-74
2022/01/23 08:23:29;;;;;;;0.85;0.30;;;21.30;99.90;;;;;;4984977;28;20444;-74
2022/01/23 08:25:57;;;;;;;2.22;0.30;;;21.20;99.90;;;;;;4988272;28;20026;-93
2022/01/23 08:28:25;;;;;;;1.65;0.35;;;21.10;99.90;;;;;;4987915;28;20018;-77
2022/01/23 08:30:53;;;;;;;1.27;0.32;;;21.00;99.90;;;;;;4987255;28;20014;-88
2022/01/23 08:33:21;;;;;;;0.80;0.30;;;21.00;99.90;;;;;;4987741;28;20496;-85
2022/01/23 08:35:48;;;;;;;2.08;0.68;;;20.90;99.90;;;;;;4994565;28;20011;-77
2022/01/23 08:38:17;;;;;;;0.82;0.43;;;20.80;99.90;;;;;;4993817;28;20030;-87
2022/01/23 08:40:48;;;;;;;0.85;0.40;;;20.80;99.90;;;;;;4991726;28;20027;-82
2022/01/23 08:43:17;;;;;;;5.15;1.75;;;20.80;99.90;;;;;;4990517;28;20029;-74
2022/01/23 08:45:45;;;;;;;0.20;0.15;;;20.80;99.90;;;;;;4990617;28;20450;-74
2022/01/23 08:48:14;;;;;;;1.45;0.40;;;20.70;99.90;;;;;;4991657;28;20057;-84
2022/01/23 08:50:42;;;;;;;2.33;0.40;;;20.60;99.90;;;;;;4990287;28;20077;-80
2022/01/23 08:53:10;;;;;;;0.93;0.40;;;20.60;99.90;;;;;;4991704;28;20041;-79
2022/01/23 08:55:37;;;;;;;1.17;0.20;;;20.50;99.90;;;;;;4989238;28;20031;-88
2022/01/23 08:58:05;;;;;;;1.95;0.50;;;20.50;99.90;;;;;;4991988;28;20081;-76
2022/01/23 09:00:33;;;;;;;2.80;0.40;;;20.30;99.90;;;;;;4991851;28;20042;-81
2022/01/23 09:03:01;;;;;;;1.23;0.40;;;20.30;99.90;;;;;;4985391;28;20022;-92
2022/01/23 09:05:29;;;;;;;1.42;0.35;;;20.30;99.90;;;;;;4986322;28;20033;-76
2022/01/23 09:07:57;;;;;;;2.90;0.30;;;20.20;99.90;;;;;;4984703;28;20022;-72
2022/01/23 09:10:27;;;;;;;2.67;0.65;;;20.20;99.90;;;;;;4984558;28;20384;-74
2022/01/23 09:15:24;;;;;;;1.38;0.47;;;20.10;99.90;;;;;;4982886;28;20149;-73
2022/01/23 09:17:52;;;;;;;1.42;0.50;;;20.10;99.90;;;;;;4984172;28;20482;-90
2022/01/23 09:20:20;;;;;;;1.17;0.35;;;20.10;99.90;;;;;;4986074;28;20026;-84
2022/01/23 09:22:47;;;;;;;3.10;0.77;;;20.10;99.90;;;;;;4986594;28;20054;-73
2022/01/23 09:25:15;;;;;;;0.85;0.40;;;20.10;99.90;;;;;;4989123;28;20019;-81
2022/01/23 09:27:43;;;;;;;6.07;0.90;;;20.10;99.90;;;;;;4986240;28;20033;-91
2022/01/23 09:30:19;;;;;;;0.77;0.30;;;20.10;99.90;;;;;;4987368;28;20077;-83
2022/01/23 09:32:48;;;;;;;1.67;0.47;;;20.10;99.90;;;;;;4985414;28;20015;-87
2022/01/23 09:35:17;;;;;;;2.45;0.60;;;20.00;99.90;;;;;;4992913;28;20015;-78
2022/01/23 09:37:45;;;;;;;2.75;0.60;;;20.00;99.90;;;;;;4992319;28;20026;-74
2022/01/23 09:40:14;;;;;;;4.30;0.40;;;19.90;99.90;;;;;;4993462;28;20018;-79
2022/01/23 09:43:06;;;;;;;4.03;0.43;;;19.80;99.90;;;;;;4991904;28;20037;-82
2022/01/23 09:45:35;;;;;;;3.65;0.50;;;19.70;99.90;;;;;;4984151;28;20578;-78
2022/01/23 09:48:04;;;;;;;1.88;0.25;;;19.60;99.90;;;;;;4983485;28;20448;-79
2022/01/23 09:50:33;;;;;;;0.90;0.30;;;19.50;99.90;;;;;;4983955;28;20497;-73
2022/01/23 09:53:01;;;;;;;3.47;0.52;;;19.50;99.90;;;;;;4985110;28;20089;-83
2022/01/23 09:55:31;;;;;;;0.88;0.30;;;19.50;99.90;;;;;;4976865;28;20038;-81
2022/01/23 09:58:00;;;;;;;6.03;0.50;;;19.40;99.90;;;;;;4984663;28;20085;-79
2022/01/23 10:00:30;;;;;;;0.98;0.35;;;19.40;99.90;;;;;;4978041;28;20089;-81
2022/01/23 10:02:58;;;;;;;0.38;0.30;;;19.40;99.90;;;;;;4985290;28;20487;-76
2022/01/23 10:05:29;;;;;;;0.47;0.20;;;19.40;99.90;;;;;;4992637;28;20023;-85
2022/01/23 10:07:57;;;;;;;0.93;0.60;;;19.40;99.90;;;;;;4992449;28;20041;-75
2022/01/23 10:10:29;;;;;;;0.40;0.32;;;19.40;99.90;;;;;;4992551;28;20046;-75
2022/01/23 10:12:59;;;;;;;3.85;0.50;;;19.40;99.90;;;;;;4991868;28;20038;-81
2022/01/23 10:15:30;;;;;;;1.25;0.28;;;19.40;99.90;;;;;;4992738;28;20045;-78
2022/01/23 10:17:59;;;;;;;2.47;0.60;;;19.40;99.90;;;;;;4992315;28;20022;-80
2022/01/23 10:20:27;;;;;;;1.38;0.22;;;19.40;99.90;;;;;;4990703;28;20484;-76
2022/01/23 10:22:57;;;;;;;2.10;0.50;;;19.30;99.90;;;;;;4992416;28;20054;-75
2022/01/23 10:25:30;;;;;;;1.92;0.50;;;19.30;99.90;;;;;;4992223;28;20467;-73
2022/01/23 10:28:10;;;;;;;1.45;0.77;;;19.30;99.90;;;;;;4990730;28;20531;-76
2022/01/23 10:30:50;;;;;;;0.47;0.20;;;19.20;99.90;;;;;;4992232;28;20391;-76
2022/01/23 10:33:31;;;;;;;1.40;0.40;;;19.30;99.90;;;;;;4987812;28;20064;-75
2022/01/23 10:36:03;;;;;;;0.63;0.43;;;19.30;99.90;;;;;;4989168;28;20025;-74
2022/01/23 10:38:36;;;;;;;2.75;0.22;;;19.30;99.90;;;;;;4990720;28;20014;-79
2022/01/23 10:49:54;;;;;;;1.65;0.40;;;19.20;99.90;;;;;;4985597;28;20029;-74
2022/01/23 10:52:50;;;;;;;0.63;0.20;;;19.20;99.90;;;;;;4984728;28;20019;-74
2022/01/23 10:55:37;;;;;;;0.98;0.25;;;19.30;99.90;;;;;;4988026;28;20035;-74
2022/01/23 10:58:17;;;;;;;2.55;0.50;;;19.30;99.90;;;;;;4988492;28;20507;-76
2022/01/23 11:00:45;;;;;;;1.67;0.50;;;19.30;99.90;;;;;;4987851;28;20081;-78
2022/01/23 11:03:23;;;;;;;2.65;0.40;;;19.30;99.90;;;;;;4987440;28;20058;-76
2022/01/23 11:05:53;;;;;;;3.38;0.20;;;19.20;99.90;;;;;;4987501;28;20027;-79
2022/01/23 11:08:33;;;;;;;0.88;0.30;;;19.20;99.90;;;;;;4987894;28;20023;-88
2022/01/23 11:11:07;;;;;;;0.35;0.22;;;19.20;99.90;;;;;;4985972;28;20031;-83
2022/01/23 11:19:41;;;;;;;0.55;0.20;;;19.00;99.90;;;;;;4987923;28;20029;-75
2022/01/23 11:22:17;;;;;;;0.75;0.20;;;18.90;99.90;;;;;;4982075;28;20061;-78
2022/01/23 11:24:47;;;;;;;0.20;0.20;;;18.90;99.90;;;;;;4987153;28;20034;-72
2022/01/23 11:27:21;;;;;;;0.85;0.30;;;18.80;99.90;;;;;;4996031;28;20100;-73
2022/01/23 11:30:08;;;;;;;1.30;0.28;;;18.80;99.90;;;;;;4995734;28;20037;-79
2022/01/23 11:32:39;;;;;;;0.70;0.40;;;18.80;99.90;;;;;;4994709;28;20022;-89
2022/01/23 11:35:19;;;;;;;0.82;0.13;;;18.70;99.90;;;;;;4987582;28;20062;-84
2022/01/23 11:37:51;;;;;;;0.90;0.15;;;18.70;99.90;;;;;;4995485;28;20078;-86
2022/01/23 11:50:42;;;;;;;0.82;0.43;;;18.70;99.90;;;;;;4992194;28;20543;-72
2022/01/23 11:54:03;;;;;;;;;;;18.70;99.90;;;;;;4987523;28;20034;-72
2022/01/23 11:56:40;;;;;;;0.35;0.30;;;18.70;99.90;;;;;;4987276;28;20326;-74
2022/01/23 11:59:33;;;;;;;1.27;0.40;;;18.70;99.90;;;;;;4987050;28;20030;-72
2022/01/23 12:02:16;;;;;;;1.27;0.40;;;18.70;99.90;;;;;;4985821;28;20031;-77
2022/01/23 12:05:04;;;;;;;0.77;0.32;;;18.60;99.90;;;;;;4986186;28;20042;-81
2022/01/23 12:07:32;;;;;;;1.00;0.30;;;18.60;99.90;;;;;;4989401;28;20022;-73
2022/01/23 12:10:20;;;;;;;1.50;0.85;;;18.70;99.90;;;;;;4985666;28;20507;-72
2022/01/23 12:12:51;;;;;;;2.20;0.70;;;18.70;99.90;;;;;;4986615;28;20035;-72
2022/01/23 12:16:34;;;;;;;4.32;0.75;;;18.60;99.90;;;;;;4985014;28;20106;-80
2022/01/23 12:18:31;;;;;;;2.80;0.50;;;18.60;99.90;;;;;;4980665;28;20511;-79
2022/01/23 12:20:59;;;;;;;2.17;0.35;;;18.60;99.90;;;;;;4987555;28;20026;-78
2022/01/23 12:23:27;;;;;;;1.23;0.52;;;18.60;99.90;;;;;;4989917;28;20034;-78
2022/01/23 12:25:57;;;;;;;2.20;0.43;;;18.60;99.90;;;;;;4986739;28;20037;-73
2022/01/23 12:28:32;;;;;;;1.27;0.32;;;18.50;99.90;;;;;;4986270;28;20076;-73
2022/01/23 12:31:18;;;;;;;2.72;0.47;;;18.50;99.90;;;;;;4986393;28;20026;-74
2022/01/23 12:33:54;;;;;;;1.40;0.50;;;18.50;99.90;;;;;;4985897;28;20022;-82
2022/01/23 12:36:28;;;;;;;1.15;0.30;;;18.50;99.90;;;;;;4985959;28;20026;-81
2022/01/23 12:39:02;;;;;;;1.55;0.40;;;18.50;99.90;;;;;;4985960;28;20022;-73
2022/01/23 12:41:41;;;;;;;0.20;0.20;;;18.50;99.90;;;;;;4985113;28;20030;-73
2022/01/23 12:44:30;;;;;;;1.20;0.30;;;18.50;99.90;;;;;;4985987;28;20264;-73
2022/01/23 12:46:59;;;;;;;0.68;0.40;;;18.50;99.90;;;;;;4985843;28;20483;-75
2022/01/23 12:49:37;;;;;;;3.95;0.68;;;18.50;99.90;;;;;;4978318;28;20031;-72
2022/01/23 12:52:10;;;;;;;0.77;0.40;;;18.40;99.90;;;;;;4975799;28;20058;-72
2022/01/23 12:54:47;;;;;;;0.95;0.20;;;18.40;99.90;;;;;;4974431;28;20394;-72
2022/01/23 12:57:25;;;;;;;1.17;0.50;;;18.40;99.90;;;;;;4975736;28;20015;-72
2022/01/23 12:59:59;;;;;;;1.10;0.32;;;18.40;99.90;;;;;;4975730;28;20101;-73
2022/01/23 13:02:35;;;;;;;0.70;0.20;;;18.40;99.90;;;;;;4975503;28;20115;-72
2022/01/23 13:05:03;;;;;;;0.95;0.38;;;18.30;99.90;;;;;;4975741;28;20027;-72
2022/01/23 13:07:43;;;;;;;1.25;0.30;;;18.40;99.90;;;;;;4975692;28;20023;-72
2022/01/23 13:12:55;;;;;;;0.75;0.30;;;18.50;99.90;;;;;;4975536;28;20148;-72
2022/01/23 13:29:53;;;;;;;0.60;0.28;;;18.50;99.90;;;;;;4975229;28;20035;-71
2022/01/23 13:32:05;;;;;;;1.25;0.20;;;18.60;99.90;;;;;;4975062;28;20030;-71
2022/01/23 13:34:37;;;;;;;0.60;0.38;;;18.60;99.90;;;;;;4975258;28;20023;-72
2022/01/23 13:37:13;;;;;;;1.88;0.70;;;18.60;99.90;;;;;;4975752;28;20029;-75
2022/01/23 13:39:47;;;;;;;1.15;0.43;;;18.60;99.90;;;;;;4974952;28;20038;-77
2022/01/23 13:42:50;;;;;;;3.55;0.30;;;18.60;99.90;;;;;;4974743;28;20043;-72
2022/01/23 13:53:25;;;;;;;2.47;0.38;;;18.70;99.90;;;;;;4974839;28;20085;-71
2022/01/23 13:58:41;;;;;;;2.22;0.47;;;18.60;99.90;;;;;;4975080;28;20034;-72
2022/01/23 14:01:34;;;;;;;0.30;0.20;;;18.60;99.90;;;;;;4974553;28;20047;-72
2022/01/23 14:03:58;;;;;;;0.45;0.32;;;18.50;99.90;;;;;;4974326;28;20327;-72
2022/01/23 14:06:26;;;;;;;0.73;0.20;;;18.50;99.90;;;;;;4974641;28;20501;-72
2022/01/23 14:09:11;;;;;;;0.40;0.20;;;18.60;99.90;;;;;;4974115;28;20027;-72
2022/01/23 14:11:40;;;;;;;1.02;0.20;;;18.60;99.90;;;;;;4974463;28;20037;-72
2022/01/23 14:14:14;;;;;;;2.05;0.55;;;18.60;99.90;;;;;;4974501;28;20034;-71
2022/01/23 14:16:44;;;;;;;0.82;0.30;;;18.60;99.90;;;;;;4974553;28;20027;-71
2022/01/23 14:19:20;;;;;;;0.57;0.13;;;18.60;99.90;;;;;;4974708;28;20026;-72
2022/01/23 14:21:53;;;;;;;0.80;0.20;;;18.60;99.90;;;;;;4974346;28;20039;-71
2022/01/23 14:24:31;;;;;;;0.75;0.17;;;18.60;99.90;;;;;;4974398;28;20023;-72
2022/01/23 14:27:08;;;;;;;0.82;0.32;;;18.60;99.90;;;;;;4973264;28;20392;-72
2022/01/23 14:29:53;;;;;;;0.52;0.20;;;18.60;99.90;;;;;;4974405;28;20523;-71
2022/01/23 14:32:41;;;;;;;0.52;0.20;;;18.60;99.90;;;;;;4974602;28;20543;-72
2022/01/23 14:35:11;;;;;;;0.93;0.30;;;18.60;99.90;;;;;;4974314;28;20054;-72
2022/01/23 14:37:41;;;;;;;0.50;0.38;;;18.60;99.90;;;;;;4974298;28;20031;-72
2022/01/23 14:40:10;;;;;;;0.80;0.35;;;18.60;99.90;;;;;;4974191;28;20490;-71
2022/01/23 14:42:37;;;;;;;3.03;0.20;;;18.60;99.90;;;;;;4974723;28;20034;-73
2022/01/23 14:45:09;;;;;;;1.45;0.50;;;18.50;99.90;;;;;;4974482;28;20421;-71
2022/01/23 14:47:39;;;;;;;3.45;0.95;;;18.50;99.90;;;;;;4974490;28;20023;-72
2022/01/23 14:50:12;;;;;;;0.63;0.40;;;18.50;99.90;;;;;;4974232;28;20027;-72
2022/01/23 14:52:44;;;;;;;3.20;0.30;;;18.50;99.90;;;;;;4974220;28;20059;-72
2022/01/23 14:55:11;;;;;;;1.25;0.43;;;18.60;99.90;;;;;;4974218;28;20102;-72
2022/01/23 14:57:41;;;;;;;0.80;0.32;;;18.60;99.90;;;;;;4974298;28;20027;-72
2022/01/23 15:00:12;;;;;;;0.35;0.15;;;18.60;99.90;;;;;;4972761;28;20391;-72
2022/01/23 15:02:42;;;;;;;0.60;0.20;;;18.60;99.90;;;;;;4972730;28;20061;-72
2022/01/23 15:05:11;;;;;;;0.20;0.20;;;18.50;99.90;;;;;;4974150;28;20541;-72
2022/01/23 15:07:41;;;;;;;0.70;0.28;;;18.50;99.90;;;;;;4978938;28;20034;-72
2022/01/23 15:10:11;;;;;;;1.02;0.30;;;18.60;99.90;;;;;;4984294;28;20033;-77
2022/01/23 15:12:39;;;;;;;0.50;0.20;;;18.50;99.90;;;;;;4983559;28;20108;-79
2022/01/23 15:15:08;;;;;;;0.90;0.30;;;18.50;99.90;;;;;;4982156;28;20023;-72
2022/01/23 15:17:37;;;;;;;1.60;0.50;;;18.50;99.90;;;;;;4983365;28;20471;-79
2022/01/23 15:20:06;;;;;;;2.67;0.60;;;18.50;99.90;;;;;;4992048;28;20045;-76
2022/01/23 15:22:34;;;;;;;0.95;0.10;;;18.50;99.90;;;;;;4996584;28;20092;-72
2022/01/23 15:25:05;;;;;;;2.97;0.52;;;18.50;99.90;;;;;;4996777;28;20022;-72
2022/01/23 15:27:34;;;;;;;0.90;0.20;;;18.50;99.90;;;;;;4996811;28;20034;-72
2022/01/23 15:30:02;;;;;;;2.00;0.40;;;18.50;99.90;;;;;;4997018;28;20551;-72
2022/01/23 15:32:29;;;;;;;1.05;0.40;;;18.50;99.90;;;;;;4996659;28;20174;-72
2022/01/23 15:34:57;;;;;;;1.25;0.65;;;18.50;99.90;;;;;;4996796;28;20030;-72
2022/01/23 15:37:25;;;;;;;0.68;0.40;;;18.50;99.90;;;;;;4996605;28;20093;-72
2022/01/23 15:39:53;;;;;;;1.48;0.38;;;18.50;99.90;;;;;;4996654;28;20030;-71
2022/01/23 15:42:20;;;;;;;0.68;0.38;;;18.40;99.90;;;;;;4996259;28;20121;-72
2022/01/23 15:44:48;;;;;;;1.80;0.40;;;18.40;99.90;;;;;;4996660;28;20022;-72
2022/01/23 15:47:16;;;;;;;1.83;0.30;;;18.40;99.90;;;;;;4996641;28;20026;-72
2022/01/23 15:49:44;;;;;;;0.93;0.47;;;18.40;99.90;;;;;;4996432;28;20022;-73
2022/01/23 15:52:12;;;;;;;4.32;0.25;;;18.40;99.90;;;;;;4996326;28;20030;-77
2022/01/23 15:54:41;;;;;;;2.10;0.75;;;18.40;99.90;;;;;;4996187;28;20026;-72
2022/01/23 15:57:08;;;;;;;2.97;0.50;;;18.40;99.90;;;;;;4996148;28;20038;-72
2022/01/23 15:59:36;;;;;;;1.40;0.25;;;18.30;99.90;;;;;;4996316;28;20019;-75
2022/01/23 16:02:08;;;;;;;2.35;0.60;;;18.30;99.90;;;;;;4996138;28;20073;-72
2022/01/23 16:04:39;;;;;;;0.75;0.45;;;18.30;99.90;;;;;;4996177;28;20486;-72
2022/01/23 16:07:09;;;;;;;0.70;0.45;;;18.30;99.90;;;;;;4996126;28;20161;-72
2022/01/23 16:09:36;;;;;;;3.05;0.65;;;18.40;99.90;;;;;;4995985;28;20061;-72
2022/01/23 16:12:05;;;;;;;0.70;0.43;;;18.40;99.90;;;;;;4995947;28;20027;-76
2022/01/23 16:14:32;;;;;;;0.73;0.40;;;18.40;99.90;;;;;;4996069;28;20508;-72
2022/01/23 16:17:00;;;;;;;1.77;0.38;;;18.40;99.90;;;;;;4996100;28;20427;-72
2022/01/23 16:19:28;;;;;;;2.55;0.50;;;18.40;99.90;;;;;;4996023;28;20390;-72
2022/01/23 16:21:55;;;;;;;1.90;0.80;;;18.20;99.90;;;;;;4995574;28;20101;-72
2022/01/23 16:24:24;;;;;;;0.55;0.40;;;18.30;99.90;;;;;;4995777;28;20096;-72
2022/01/23 16:26:53;;;;;;;2.38;0.32;;;18.30;99.90;;;;;;4995742;28;20121;-72
2022/01/23 16:29:22;;;;;;;1.58;0.40;;;18.30;99.90;;;;;;4995600;28;20041;-72
2022/01/23 16:31:51;;;;;;;0.80;0.57;;;18.30;99.90;;;;;;4994857;28;20026;-72
2022/01/23 16:34:19;;;;;;;2.83;0.40;;;18.30;99.90;;;;;;4995696;28;20102;-74